sensor_id;sensor_type;location;lat;lon;timestamp;P1;durP1;ratioP1;P2;durP2;ratioP2
69890;SDS011;57170;43.964;21.262;2024-01-30T00:01:45;60.90;;;39.90;;
69890;SDS011;57170;43.964;21.262;2024-01-30T00:04:11;56.58;;;40.03;;
69890;SDS011;57170;43.964;21.262;2024-01-30T00:06:37;111.53;;;67.47;;
69890;SDS011;57170;43.964;21.262;2024-01-30T00:09:03;104.50;;;61.40;;
69890;SDS011;57170;43.964;21.262;2024-01-30T00:11:30;72.47;;;47.50;;
69890;SDS011;57170;43.964;21.262;2024-01-30T00:13:56;68.45;;;46.80;;
69890;SDS011;57170;43.964;21.262;2024-01-30T00:16:23;75.47;;;49.28;;
69890;SDS011;57170;43.964;21.262;2024-01-30T00:18:52;68.85;;;50.15;;
69890;SDS011;57170;43.964;21.262;2024-01-30T00:21:20;65.93;;;42.10;;
69890;SDS011;57170;43.964;21.262;2024-01-30T00:23:46;67.78;;;48.50;;
69890;SDS011;57170;43.964;21.262;2024-01-30T00:26:12;66.82;;;49.08;;
69890;SDS011;57170;43.964;21.262;2024-01-30T00:28:40;70.22;;;48.90;;
69890;SDS011;57170;43.964;21.262;2024-01-30T00:31:06;66.55;;;46.15;;
69890;SDS011;57170;43.964;21.262;2024-01-30T00:33:32;77.75;;;50.50;;
69890;SDS011;57170;43.964;21.262;2024-01-30T00:35:58;79.07;;;53.28;;
69890;SDS011;57170;43.964;21.262;2024-01-30T00:38:24;73.95;;;46.25;;
69890;SDS011;57170;43.964;21.262;2024-01-30T00:40:50;77.07;;;50.53;;
69890;SDS011;57170;43.964;21.262;2024-01-30T00:43:16;66.40;;;45.20;;
69890;SDS011;57170;43.964;21.262;2024-01-30T00:45:46;59.83;;;42.28;;
69890;SDS011;57170;43.964;21.262;2024-01-30T00:48:12;62.25;;;40.85;;
69890;SDS011;57170;43.964;21.262;2024-01-30T00:50:39;73.93;;;47.17;;
69890;SDS011;57170;43.964;21.262;2024-01-30T00:53:05;87.45;;;60.95;;
69890;SDS011;57170;43.964;21.262;2024-01-30T00:55:31;70.75;;;50.42;;
69890;SDS011;57170;43.964;21.262;2024-01-30T00:57:57;73.88;;;51.63;;
69890;SDS011;57170;43.964;21.262;2024-01-30T01:00:23;67.85;;;50.92;;
69890;SDS011;57170;43.964;21.262;2024-01-30T01:02:54;71.40;;;44.22;;
69890;SDS011;57170;43.964;21.262;2024-01-30T01:05:20;64.78;;;46.60;;
69890;SDS011;57170;43.964;21.262;2024-01-30T01:07:46;52.47;;;36.80;;
69890;SDS011;57170;43.964;21.262;2024-01-30T01:10:16;57.58;;;36.08;;
69890;SDS011;57170;43.964;21.262;2024-01-30T01:12:43;49.63;;;34.25;;
69890;SDS011;57170;43.964;21.262;2024-01-30T01:15:09;57.70;;;42.13;;
69890;SDS011;57170;43.964;21.262;2024-01-30T01:17:36;50.95;;;35.08;;
69890;SDS011;57170;43.964;21.262;2024-01-30T01:20:02;53.13;;;36.17;;
69890;SDS011;57170;43.964;21.262;2024-01-30T01:22:30;45.05;;;32.58;;
69890;SDS011;57170;43.964;21.262;2024-01-30T01:24:56;50.22;;;34.47;;
69890;SDS011;57170;43.964;21.262;2024-01-30T01:27:22;55.38;;;37.80;;
69890;SDS011;57170;43.964;21.262;2024-01-30T01:29:48;48.95;;;35.90;;
69890;SDS011;57170;43.964;21.262;2024-01-30T01:32:14;48.58;;;35.45;;
69890;SDS011;57170;43.964;21.262;2024-01-30T01:34:41;54.13;;;35.35;;
69890;SDS011;57170;43.964;21.262;2024-01-30T01:37:07;51.80;;;39.30;;
69890;SDS011;57170;43.964;21.262;2024-01-30T01:39:33;53.72;;;36.55;;
69890;SDS011;57170;43.964;21.262;2024-01-30T01:41:59;54.30;;;36.53;;
69890;SDS011;57170;43.964;21.262;2024-01-30T01:44:25;51.28;;;34.70;;
69890;SDS011;57170;43.964;21.262;2024-01-30T01:46:51;51.25;;;35.63;;
69890;SDS011;57170;43.964;21.262;2024-01-30T01:49:18;45.03;;;33.25;;
69890;SDS011;57170;43.964;21.262;2024-01-30T01:51:44;43.95;;;31.00;;
69890;SDS011;57170;43.964;21.262;2024-01-30T01:54:12;50.08;;;32.72;;
69890;SDS011;57170;43.964;21.262;2024-01-30T01:56:38;51.85;;;35.25;;
69890;SDS011;57170;43.964;21.262;2024-01-30T01:59:05;53.88;;;39.70;;
69890;SDS011;57170;43.964;21.262;2024-01-30T02:01:38;48.58;;;35.00;;
69890;SDS011;57170;43.964;21.262;2024-01-30T02:04:08;51.63;;;35.45;;
69890;SDS011;57170;43.964;21.262;2024-01-30T02:06:34;46.78;;;32.78;;
69890;SDS011;57170;43.964;21.262;2024-01-30T02:09:00;43.65;;;33.38;;
69890;SDS011;57170;43.964;21.262;2024-01-30T02:11:26;59.42;;;34.83;;
69890;SDS011;57170;43.964;21.262;2024-01-30T02:13:54;49.40;;;31.60;;
69890;SDS011;57170;43.964;21.262;2024-01-30T02:16:20;46.00;;;31.85;;
69890;SDS011;57170;43.964;21.262;2024-01-30T02:18:46;58.00;;;33.22;;
69890;SDS011;57170;43.964;21.262;2024-01-30T02:21:16;52.42;;;33.88;;
69890;SDS011;57170;43.964;21.262;2024-01-30T02:23:46;58.97;;;40.17;;
69890;SDS011;57170;43.964;21.262;2024-01-30T02:26:12;48.75;;;33.15;;
69890;SDS011;57170;43.964;21.262;2024-01-30T02:28:38;50.08;;;33.15;;
69890;SDS011;57170;43.964;21.262;2024-01-30T02:31:05;51.45;;;36.92;;
69890;SDS011;57170;43.964;21.262;2024-01-30T02:33:31;47.92;;;35.60;;
69890;SDS011;57170;43.964;21.262;2024-01-30T02:35:57;43.45;;;31.83;;
69890;SDS011;57170;43.964;21.262;2024-01-30T02:38:23;44.25;;;32.30;;
69890;SDS011;57170;43.964;21.262;2024-01-30T02:40:50;47.50;;;32.90;;
69890;SDS011;57170;43.964;21.262;2024-01-30T02:43:16;52.38;;;34.33;;
69890;SDS011;57170;43.964;21.262;2024-01-30T02:45:42;53.08;;;37.13;;
69890;SDS011;57170;43.964;21.262;2024-01-30T02:48:08;63.83;;;40.00;;
69890;SDS011;57170;43.964;21.262;2024-01-30T02:50:34;69.75;;;44.35;;
69890;SDS011;57170;43.964;21.262;2024-01-30T02:53:00;61.67;;;37.42;;
69890;SDS011;57170;43.964;21.262;2024-01-30T02:55:26;60.63;;;40.95;;
69890;SDS011;57170;43.964;21.262;2024-01-30T02:57:52;50.95;;;33.10;;
69890;SDS011;57170;43.964;21.262;2024-01-30T03:00:19;52.60;;;34.22;;
69890;SDS011;57170;43.964;21.262;2024-01-30T03:02:45;51.33;;;34.47;;
69890;SDS011;57170;43.964;21.262;2024-01-30T03:05:12;46.75;;;30.60;;
69890;SDS011;57170;43.964;21.262;2024-01-30T03:07:38;44.90;;;32.78;;
69890;SDS011;57170;43.964;21.262;2024-01-30T03:10:04;44.10;;;33.65;;
69890;SDS011;57170;43.964;21.262;2024-01-30T03:12:31;46.70;;;32.22;;
69890;SDS011;57170;43.964;21.262;2024-01-30T03:14:57;44.00;;;32.60;;
69890;SDS011;57170;43.964;21.262;2024-01-30T03:17:23;56.60;;;37.55;;
69890;SDS011;57170;43.964;21.262;2024-01-30T03:19:49;58.80;;;38.05;;
69890;SDS011;57170;43.964;21.262;2024-01-30T03:22:15;47.83;;;33.13;;
69890;SDS011;57170;43.964;21.262;2024-01-30T03:24:42;52.97;;;35.72;;
69890;SDS011;57170;43.964;21.262;2024-01-30T03:27:08;55.38;;;37.38;;
69890;SDS011;57170;43.964;21.262;2024-01-30T03:29:34;52.92;;;36.03;;
69890;SDS011;57170;43.964;21.262;2024-01-30T03:32:00;62.58;;;38.00;;
69890;SDS011;57170;43.964;21.262;2024-01-30T03:34:27;63.83;;;40.00;;
69890;SDS011;57170;43.964;21.262;2024-01-30T03:36:53;59.20;;;42.42;;
69890;SDS011;57170;43.964;21.262;2024-01-30T03:39:19;68.47;;;43.40;;
69890;SDS011;57170;43.964;21.262;2024-01-30T03:41:45;68.95;;;40.83;;
69890;SDS011;57170;43.964;21.262;2024-01-30T03:44:11;59.17;;;36.47;;
69890;SDS011;57170;43.964;21.262;2024-01-30T03:46:37;57.25;;;41.78;;
69890;SDS011;57170;43.964;21.262;2024-01-30T03:49:03;58.20;;;33.50;;
69890;SDS011;57170;43.964;21.262;2024-01-30T03:51:29;62.53;;;40.65;;
69890;SDS011;57170;43.964;21.262;2024-01-30T03:53:55;46.50;;;32.67;;
69890;SDS011;57170;43.964;21.262;2024-01-30T03:56:21;41.30;;;30.38;;
69890;SDS011;57170;43.964;21.262;2024-01-30T03:58:48;48.22;;;32.75;;
69890;SDS011;57170;43.964;21.262;2024-01-30T04:01:14;48.38;;;34.75;;
69890;SDS011;57170;43.964;21.262;2024-01-30T04:03:40;48.70;;;30.83;;
69890;SDS011;57170;43.964;21.262;2024-01-30T04:06:07;48.05;;;33.65;;
69890;SDS011;57170;43.964;21.262;2024-01-30T04:08:34;47.50;;;32.20;;
69890;SDS011;57170;43.964;21.262;2024-01-30T04:11:03;52.85;;;37.20;;
69890;SDS011;57170;43.964;21.262;2024-01-30T04:13:31;50.60;;;34.63;;
69890;SDS011;57170;43.964;21.262;2024-01-30T04:15:58;55.33;;;35.33;;
69890;SDS011;57170;43.964;21.262;2024-01-30T04:18:25;47.05;;;33.25;;
69890;SDS011;57170;43.964;21.262;2024-01-30T04:20:51;44.85;;;28.55;;
69890;SDS011;57170;43.964;21.262;2024-01-30T04:23:17;37.67;;;26.80;;
69890;SDS011;57170;43.964;21.262;2024-01-30T04:25:43;44.10;;;27.55;;
69890;SDS011;57170;43.964;21.262;2024-01-30T04:28:09;44.72;;;29.88;;
69890;SDS011;57170;43.964;21.262;2024-01-30T04:30:37;36.10;;;27.13;;
69890;SDS011;57170;43.964;21.262;2024-01-30T04:33:03;44.10;;;28.92;;
69890;SDS011;57170;43.964;21.262;2024-01-30T04:35:29;44.30;;;29.08;;
69890;SDS011;57170;43.964;21.262;2024-01-30T04:37:56;39.60;;;28.05;;
69890;SDS011;57170;43.964;21.262;2024-01-30T04:40:22;36.67;;;27.67;;
69890;SDS011;57170;43.964;21.262;2024-01-30T04:42:48;44.28;;;29.15;;
69890;SDS011;57170;43.964;21.262;2024-01-30T04:45:14;44.70;;;28.95;;
69890;SDS011;57170;43.964;21.262;2024-01-30T04:47:40;46.65;;;30.25;;
69890;SDS011;57170;43.964;21.262;2024-01-30T04:50:06;40.58;;;29.70;;
69890;SDS011;57170;43.964;21.262;2024-01-30T04:52:33;47.40;;;31.55;;
69890;SDS011;57170;43.964;21.262;2024-01-30T04:54:59;43.80;;;29.13;;
69890;SDS011;57170;43.964;21.262;2024-01-30T04:57:25;49.35;;;32.50;;
69890;SDS011;57170;43.964;21.262;2024-01-30T04:59:52;39.92;;;31.05;;
69890;SDS011;57170;43.964;21.262;2024-01-30T05:02:18;44.97;;;31.45;;
69890;SDS011;57170;43.964;21.262;2024-01-30T05:04:44;38.47;;;28.92;;
69890;SDS011;57170;43.964;21.262;2024-01-30T05:07:10;40.30;;;27.38;;
69890;SDS011;57170;43.964;21.262;2024-01-30T05:09:36;39.70;;;29.52;;
69890;SDS011;57170;43.964;21.262;2024-01-30T05:12:02;43.97;;;30.23;;
69890;SDS011;57170;43.964;21.262;2024-01-30T05:14:28;45.53;;;32.20;;
69890;SDS011;57170;43.964;21.262;2024-01-30T05:16:55;52.83;;;36.10;;
69890;SDS011;57170;43.964;21.262;2024-01-30T05:19:21;43.45;;;29.08;;
69890;SDS011;57170;43.964;21.262;2024-01-30T05:21:48;44.42;;;28.33;;
69890;SDS011;57170;43.964;21.262;2024-01-30T05:24:14;46.70;;;31.60;;
69890;SDS011;57170;43.964;21.262;2024-01-30T05:26:40;42.38;;;29.40;;
69890;SDS011;57170;43.964;21.262;2024-01-30T05:29:06;33.10;;;24.70;;
69890;SDS011;57170;43.964;21.262;2024-01-30T05:31:33;39.42;;;27.65;;
69890;SDS011;57170;43.964;21.262;2024-01-30T05:33:59;44.00;;;28.13;;
69890;SDS011;57170;43.964;21.262;2024-01-30T05:36:25;44.63;;;30.92;;
69890;SDS011;57170;43.964;21.262;2024-01-30T05:38:52;57.97;;;37.75;;
69890;SDS011;57170;43.964;21.262;2024-01-30T05:41:18;80.05;;;48.78;;
69890;SDS011;57170;43.964;21.262;2024-01-30T05:43:44;67.10;;;45.25;;
69890;SDS011;57170;43.964;21.262;2024-01-30T05:46:10;72.00;;;49.15;;
69890;SDS011;57170;43.964;21.262;2024-01-30T05:48:36;69.20;;;46.20;;
69890;SDS011;57170;43.964;21.262;2024-01-30T05:51:02;60.42;;;39.33;;
69890;SDS011;57170;43.964;21.262;2024-01-30T05:53:29;57.17;;;38.22;;
69890;SDS011;57170;43.964;21.262;2024-01-30T05:55:55;56.83;;;37.80;;
69890;SDS011;57170;43.964;21.262;2024-01-30T05:58:21;61.08;;;37.72;;
69890;SDS011;57170;43.964;21.262;2024-01-30T06:00:47;55.38;;;39.47;;
69890;SDS011;57170;43.964;21.262;2024-01-30T06:03:13;58.72;;;40.15;;
69890;SDS011;57170;43.964;21.262;2024-01-30T06:05:39;67.47;;;49.55;;
69890;SDS011;57170;43.964;21.262;2024-01-30T06:08:06;80.18;;;54.50;;
69890;SDS011;57170;43.964;21.262;2024-01-30T06:10:32;85.03;;;52.17;;
69890;SDS011;57170;43.964;21.262;2024-01-30T06:12:58;107.40;;;67.88;;
69890;SDS011;57170;43.964;21.262;2024-01-30T06:15:24;112.75;;;71.30;;
69890;SDS011;57170;43.964;21.262;2024-01-30T06:17:51;112.05;;;69.13;;
69890;SDS011;57170;43.964;21.262;2024-01-30T06:20:17;99.65;;;66.95;;
69890;SDS011;57170;43.964;21.262;2024-01-30T06:22:43;110.22;;;70.13;;
69890;SDS011;57170;43.964;21.262;2024-01-30T06:25:09;138.23;;;90.95;;
69890;SDS011;57170;43.964;21.262;2024-01-30T06:27:37;128.98;;;81.78;;
69890;SDS011;57170;43.964;21.262;2024-01-30T06:30:04;129.70;;;80.18;;
69890;SDS011;57170;43.964;21.262;2024-01-30T06:32:30;128.18;;;85.22;;
69890;SDS011;57170;43.964;21.262;2024-01-30T06:34:59;128.38;;;86.07;;
69890;SDS011;57170;43.964;21.262;2024-01-30T06:37:26;152.57;;;93.30;;
69890;SDS011;57170;43.964;21.262;2024-01-30T06:39:52;114.50;;;75.18;;
69890;SDS011;57170;43.964;21.262;2024-01-30T06:42:18;87.95;;;57.85;;
69890;SDS011;57170;43.964;21.262;2024-01-30T06:44:44;71.22;;;47.05;;
69890;SDS011;57170;43.964;21.262;2024-01-30T06:47:10;71.57;;;47.38;;
69890;SDS011;57170;43.964;21.262;2024-01-30T06:49:36;71.35;;;43.92;;
69890;SDS011;57170;43.964;21.262;2024-01-30T06:52:07;53.08;;;35.35;;
69890;SDS011;57170;43.964;21.262;2024-01-30T06:54:33;45.30;;;30.75;;
69890;SDS011;57170;43.964;21.262;2024-01-30T06:56:59;38.83;;;29.98;;
69890;SDS011;57170;43.964;21.262;2024-01-30T06:59:25;68.88;;;32.53;;
69890;SDS011;57170;43.964;21.262;2024-01-30T07:01:51;36.67;;;26.52;;
69890;SDS011;57170;43.964;21.262;2024-01-30T07:04:17;39.20;;;31.80;;
69890;SDS011;57170;43.964;21.262;2024-01-30T07:06:44;42.53;;;28.67;;
69890;SDS011;57170;43.964;21.262;2024-01-30T07:09:10;45.95;;;29.80;;
69890;SDS011;57170;43.964;21.262;2024-01-30T07:11:36;43.08;;;27.90;;
69890;SDS011;57170;43.964;21.262;2024-01-30T07:14:02;34.42;;;26.10;;
69890;SDS011;57170;43.964;21.262;2024-01-30T07:16:31;39.00;;;29.15;;
69890;SDS011;57170;43.964;21.262;2024-01-30T07:18:57;36.22;;;28.95;;
69890;SDS011;57170;43.964;21.262;2024-01-30T07:21:23;39.92;;;29.20;;
69890;SDS011;57170;43.964;21.262;2024-01-30T07:23:55;65.15;;;41.90;;
69890;SDS011;57170;43.964;21.262;2024-01-30T07:26:22;66.85;;;42.88;;
69890;SDS011;57170;43.964;21.262;2024-01-30T07:28:48;57.90;;;45.00;;
69890;SDS011;57170;43.964;21.262;2024-01-30T07:31:15;100.10;;;73.82;;
69890;SDS011;57170;43.964;21.262;2024-01-30T07:33:41;58.92;;;49.90;;
69890;SDS011;57170;43.964;21.262;2024-01-30T07:36:07;50.70;;;40.95;;
69890;SDS011;57170;43.964;21.262;2024-01-30T07:38:33;53.33;;;43.95;;
69890;SDS011;57170;43.964;21.262;2024-01-30T07:40:59;67.53;;;49.70;;
69890;SDS011;57170;43.964;21.262;2024-01-30T07:43:25;61.45;;;51.50;;
69890;SDS011;57170;43.964;21.262;2024-01-30T07:45:52;60.00;;;50.08;;
69890;SDS011;57170;43.964;21.262;2024-01-30T07:48:18;61.53;;;51.60;;
69890;SDS011;57170;43.964;21.262;2024-01-30T07:50:44;55.40;;;49.22;;
69890;SDS011;57170;43.964;21.262;2024-01-30T07:53:10;57.22;;;46.88;;
69890;SDS011;57170;43.964;21.262;2024-01-30T07:55:36;53.80;;;47.83;;
69890;SDS011;57170;43.964;21.262;2024-01-30T07:58:02;58.58;;;48.78;;
69890;SDS011;57170;43.964;21.262;2024-01-30T08:00:29;55.50;;;44.72;;
69890;SDS011;57170;43.964;21.262;2024-01-30T08:02:56;48.63;;;40.78;;
69890;SDS011;57170;43.964;21.262;2024-01-30T08:05:22;55.65;;;45.35;;
69890;SDS011;57170;43.964;21.262;2024-01-30T08:07:49;58.33;;;43.53;;
69890;SDS011;57170;43.964;21.262;2024-01-30T08:10:15;49.20;;;42.90;;
69890;SDS011;57170;43.964;21.262;2024-01-30T08:12:44;51.00;;;43.55;;
69890;SDS011;57170;43.964;21.262;2024-01-30T08:15:11;45.95;;;40.88;;
69890;SDS011;57170;43.964;21.262;2024-01-30T08:17:40;51.70;;;42.78;;
69890;SDS011;57170;43.964;21.262;2024-01-30T08:20:06;39.90;;;32.72;;
69890;SDS011;57170;43.964;21.262;2024-01-30T08:22:33;36.20;;;32.35;;
69890;SDS011;57170;43.964;21.262;2024-01-30T08:24:59;37.42;;;33.40;;
69890;SDS011;57170;43.964;21.262;2024-01-30T08:27:25;38.20;;;34.13;;
69890;SDS011;57170;43.964;21.262;2024-01-30T08:29:51;38.28;;;34.25;;
69890;SDS011;57170;43.964;21.262;2024-01-30T08:32:18;38.42;;;34.25;;
69890;SDS011;57170;43.964;21.262;2024-01-30T08:34:44;38.55;;;32.47;;
69890;SDS011;57170;43.964;21.262;2024-01-30T08:37:10;42.95;;;38.15;;
69890;SDS011;57170;43.964;21.262;2024-01-30T08:39:37;38.75;;;34.22;;
69890;SDS011;57170;43.964;21.262;2024-01-30T08:42:03;41.47;;;37.15;;
69890;SDS011;57170;43.964;21.262;2024-01-30T08:44:29;37.25;;;33.40;;
69890;SDS011;57170;43.964;21.262;2024-01-30T08:46:55;42.33;;;37.85;;
69890;SDS011;57170;43.964;21.262;2024-01-30T08:49:21;42.47;;;37.70;;
69890;SDS011;57170;43.964;21.262;2024-01-30T08:51:48;40.58;;;36.28;;
69890;SDS011;57170;43.964;21.262;2024-01-30T08:54:15;37.28;;;33.33;;
69890;SDS011;57170;43.964;21.262;2024-01-30T08:56:42;38.30;;;32.13;;
69890;SDS011;57170;43.964;21.262;2024-01-30T08:59:09;34.03;;;30.42;;
69890;SDS011;57170;43.964;21.262;2024-01-30T09:01:35;32.92;;;29.52;;
69890;SDS011;57170;43.964;21.262;2024-01-30T09:04:01;31.63;;;28.05;;
69890;SDS011;57170;43.964;21.262;2024-01-30T09:06:27;33.80;;;30.20;;
69890;SDS011;57170;43.964;21.262;2024-01-30T09:08:54;37.05;;;33.10;;
69890;SDS011;57170;43.964;21.262;2024-01-30T09:11:20;59.63;;;51.58;;
69890;SDS011;57170;43.964;21.262;2024-01-30T09:13:46;55.45;;;47.65;;
69890;SDS011;57170;43.964;21.262;2024-01-30T09:16:12;55.00;;;49.22;;
69890;SDS011;57170;43.964;21.262;2024-01-30T09:18:38;62.58;;;52.75;;
69890;SDS011;57170;43.964;21.262;2024-01-30T09:21:05;50.35;;;45.00;;
69890;SDS011;57170;43.964;21.262;2024-01-30T09:23:31;47.40;;;42.30;;
69890;SDS011;57170;43.964;21.262;2024-01-30T09:25:58;57.38;;;48.00;;
69890;SDS011;57170;43.964;21.262;2024-01-30T09:28:24;52.78;;;46.72;;
69890;SDS011;57170;43.964;21.262;2024-01-30T09:30:51;53.35;;;42.80;;
69890;SDS011;57170;43.964;21.262;2024-01-30T09:33:17;56.70;;;47.00;;
69890;SDS011;57170;43.964;21.262;2024-01-30T09:35:43;53.67;;;42.83;;
69890;SDS011;57170;43.964;21.262;2024-01-30T09:38:10;53.72;;;42.42;;
69890;SDS011;57170;43.964;21.262;2024-01-30T09:40:36;44.65;;;37.72;;
69890;SDS011;57170;43.964;21.262;2024-01-30T09:43:02;47.45;;;38.53;;
69890;SDS011;57170;43.964;21.262;2024-01-30T09:45:28;46.35;;;37.90;;
69890;SDS011;57170;43.964;21.262;2024-01-30T09:47:55;77.47;;;70.20;;
69890;SDS011;57170;43.964;21.262;2024-01-30T09:50:21;42.58;;;36.55;;
69890;SDS011;57170;43.964;21.262;2024-01-30T09:52:48;38.10;;;33.97;;
69890;SDS011;57170;43.964;21.262;2024-01-30T09:55:15;38.10;;;34.00;;
69890;SDS011;57170;43.964;21.262;2024-01-30T09:57:41;36.63;;;32.72;;
69890;SDS011;57170;43.964;21.262;2024-01-30T10:00:08;38.30;;;34.33;;
69890;SDS011;57170;43.964;21.262;2024-01-30T10:02:34;36.28;;;32.55;;
69890;SDS011;57170;43.964;21.262;2024-01-30T10:05:01;36.97;;;32.15;;
69890;SDS011;57170;43.964;21.262;2024-01-30T10:07:27;34.40;;;30.75;;
69890;SDS011;57170;43.964;21.262;2024-01-30T10:09:54;35.78;;;31.98;;
69890;SDS011;57170;43.964;21.262;2024-01-30T10:12:21;33.22;;;29.23;;
69890;SDS011;57170;43.964;21.262;2024-01-30T10:14:48;38.95;;;32.42;;
69890;SDS011;57170;43.964;21.262;2024-01-30T10:17:14;38.78;;;34.35;;
69890;SDS011;57170;43.964;21.262;2024-01-30T10:19:40;38.33;;;34.50;;
69890;SDS011;57170;43.964;21.262;2024-01-30T10:22:07;41.17;;;35.63;;
69890;SDS011;57170;43.964;21.262;2024-01-30T10:24:33;40.72;;;36.45;;
69890;SDS011;57170;43.964;21.262;2024-01-30T10:27:00;37.15;;;33.25;;
69890;SDS011;57170;43.964;21.262;2024-01-30T10:29:26;32.58;;;29.10;;
69890;SDS011;57170;43.964;21.262;2024-01-30T10:32:02;34.83;;;31.15;;
69890;SDS011;57170;43.964;21.262;2024-01-30T10:34:28;30.08;;;26.88;;
69890;SDS011;57170;43.964;21.262;2024-01-30T10:39:28;32.72;;;28.75;;
69890;SDS011;57170;43.964;21.262;2024-01-30T10:41:56;29.55;;;26.27;;
69890;SDS011;57170;43.964;21.262;2024-01-30T10:44:25;18.92;;;16.95;;
69890;SDS011;57170;43.964;21.262;2024-01-30T10:46:56;12.07;;;10.73;;
69890;SDS011;57170;43.964;21.262;2024-01-30T10:49:25;12.20;;;10.82;;
69890;SDS011;57170;43.964;21.262;2024-01-30T10:51:52;19.00;;;17.10;;
69890;SDS011;57170;43.964;21.262;2024-01-30T10:54:18;12.93;;;10.48;;
69890;SDS011;57170;43.964;21.262;2024-01-30T10:56:45;12.98;;;11.65;;
69890;SDS011;57170;43.964;21.262;2024-01-30T10:59:12;13.65;;;11.98;;
69890;SDS011;57170;43.964;21.262;2024-01-30T11:01:38;14.70;;;12.55;;
69890;SDS011;57170;43.964;21.262;2024-01-30T11:04:05;14.45;;;12.15;;
69890;SDS011;57170;43.964;21.262;2024-01-30T11:06:32;14.60;;;11.15;;
69890;SDS011;57170;43.964;21.262;2024-01-30T11:09:09;15.75;;;14.13;;
69890;SDS011;57170;43.964;21.262;2024-01-30T11:14:33;14.00;;;11.82;;
69890;SDS011;57170;43.964;21.262;2024-01-30T11:16:59;16.27;;;11.73;;
69890;SDS011;57170;43.964;21.262;2024-01-30T11:19:26;14.63;;;13.00;;
69890;SDS011;57170;43.964;21.262;2024-01-30T11:21:52;14.02;;;12.63;;
69890;SDS011;57170;43.964;21.262;2024-01-30T11:24:22;14.45;;;12.77;;
69890;SDS011;57170;43.964;21.262;2024-01-30T11:26:49;13.95;;;12.45;;
69890;SDS011;57170;43.964;21.262;2024-01-30T11:29:16;14.32;;;12.48;;
69890;SDS011;57170;43.964;21.262;2024-01-30T11:32:01;14.88;;;13.25;;
69890;SDS011;57170;43.964;21.262;2024-01-30T11:34:28;19.13;;;12.88;;
69890;SDS011;57170;43.964;21.262;2024-01-30T11:37:03;11.50;;;10.23;;
69890;SDS011;57170;43.964;21.262;2024-01-30T11:39:29;12.10;;;10.48;;
69890;SDS011;57170;43.964;21.262;2024-01-30T11:41:56;14.07;;;11.32;;
69890;SDS011;57170;43.964;21.262;2024-01-30T11:44:23;13.98;;;12.13;;
69890;SDS011;57170;43.964;21.262;2024-01-30T11:46:50;14.07;;;12.57;;
69890;SDS011;57170;43.964;21.262;2024-01-30T11:49:17;17.63;;;12.93;;
69890;SDS011;57170;43.964;21.262;2024-01-30T11:51:45;14.00;;;12.05;;
69890;SDS011;57170;43.964;21.262;2024-01-30T11:54:13;22.95;;;18.38;;
69890;SDS011;57170;43.964;21.262;2024-01-30T11:56:39;15.90;;;13.32;;
69890;SDS011;57170;43.964;21.262;2024-01-30T11:59:05;15.38;;;13.48;;
69890;SDS011;57170;43.964;21.262;2024-01-30T12:01:32;12.80;;;10.70;;
69890;SDS011;57170;43.964;21.262;2024-01-30T12:03:59;12.93;;;11.57;;
69890;SDS011;57170;43.964;21.262;2024-01-30T12:06:25;13.20;;;10.05;;
69890;SDS011;57170;43.964;21.262;2024-01-30T12:08:57;18.65;;;13.52;;
69890;SDS011;57170;43.964;21.262;2024-01-30T12:11:24;19.83;;;12.18;;
69890;SDS011;57170;43.964;21.262;2024-01-30T12:13:51;15.10;;;11.48;;
69890;SDS011;57170;43.964;21.262;2024-01-30T12:16:17;14.07;;;10.60;;
69890;SDS011;57170;43.964;21.262;2024-01-30T12:18:44;13.93;;;11.20;;
69890;SDS011;57170;43.964;21.262;2024-01-30T12:21:11;18.08;;;11.93;;
69890;SDS011;57170;43.964;21.262;2024-01-30T12:23:37;14.93;;;11.57;;
69890;SDS011;57170;43.964;21.262;2024-01-30T12:26:03;15.45;;;12.18;;
69890;SDS011;57170;43.964;21.262;2024-01-30T12:28:32;16.13;;;12.38;;
69890;SDS011;57170;43.964;21.262;2024-01-30T12:31:02;14.60;;;11.65;;
69890;SDS011;57170;43.964;21.262;2024-01-30T12:33:29;16.20;;;12.02;;
69890;SDS011;57170;43.964;21.262;2024-01-30T12:35:55;14.40;;;11.10;;
69890;SDS011;57170;43.964;21.262;2024-01-30T12:38:22;13.80;;;11.23;;
69890;SDS011;57170;43.964;21.262;2024-01-30T12:40:49;17.35;;;11.68;;
69890;SDS011;57170;43.964;21.262;2024-01-30T12:43:15;13.48;;;11.18;;
69890;SDS011;57170;43.964;21.262;2024-01-30T12:45:42;14.75;;;11.65;;
69890;SDS011;57170;43.964;21.262;2024-01-30T12:48:08;14.63;;;12.13;;
69890;SDS011;57170;43.964;21.262;2024-01-30T12:50:35;18.25;;;13.20;;
69890;SDS011;57170;43.964;21.262;2024-01-30T12:53:01;15.93;;;11.38;;
69890;SDS011;57170;43.964;21.262;2024-01-30T12:55:27;15.82;;;11.38;;
69890;SDS011;57170;43.964;21.262;2024-01-30T12:57:54;13.60;;;10.27;;
69890;SDS011;57170;43.964;21.262;2024-01-30T13:00:20;12.27;;;9.90;;
69890;SDS011;57170;43.964;21.262;2024-01-30T13:02:47;14.20;;;10.70;;
69890;SDS011;57170;43.964;21.262;2024-01-30T13:05:13;12.70;;;9.80;;
69890;SDS011;57170;43.964;21.262;2024-01-30T13:07:39;13.50;;;10.02;;
69890;SDS011;57170;43.964;21.262;2024-01-30T13:10:06;12.40;;;9.77;;
69890;SDS011;57170;43.964;21.262;2024-01-30T13:12:32;15.77;;;10.43;;
69890;SDS011;57170;43.964;21.262;2024-01-30T13:14:58;14.18;;;10.55;;
69890;SDS011;57170;43.964;21.262;2024-01-30T13:17:29;12.65;;;9.80;;
69890;SDS011;57170;43.964;21.262;2024-01-30T13:19:56;10.40;;;8.88;;
69890;SDS011;57170;43.964;21.262;2024-01-30T13:22:23;12.80;;;9.38;;
69890;SDS011;57170;43.964;21.262;2024-01-30T13:24:49;14.05;;;10.20;;
69890;SDS011;57170;43.964;21.262;2024-01-30T13:27:16;14.93;;;10.43;;
69890;SDS011;57170;43.964;21.262;2024-01-30T13:29:42;13.40;;;10.55;;
69890;SDS011;57170;43.964;21.262;2024-01-30T13:32:08;13.45;;;10.00;;
69890;SDS011;57170;43.964;21.262;2024-01-30T13:34:35;18.02;;;13.90;;
69890;SDS011;57170;43.964;21.262;2024-01-30T13:37:01;15.45;;;10.85;;
69890;SDS011;57170;43.964;21.262;2024-01-30T13:39:27;15.10;;;10.90;;
69890;SDS011;57170;43.964;21.262;2024-01-30T13:41:54;15.07;;;10.63;;
69890;SDS011;57170;43.964;21.262;2024-01-30T13:44:20;14.77;;;11.70;;
69890;SDS011;57170;43.964;21.262;2024-01-30T13:46:46;14.57;;;10.48;;
69890;SDS011;57170;43.964;21.262;2024-01-30T13:49:12;20.67;;;11.73;;
69890;SDS011;57170;43.964;21.262;2024-01-30T13:51:39;13.30;;;10.05;;
69890;SDS011;57170;43.964;21.262;2024-01-30T13:54:05;18.15;;;12.25;;
69890;SDS011;57170;43.964;21.262;2024-01-30T13:56:31;15.57;;;10.85;;
69890;SDS011;57170;43.964;21.262;2024-01-30T13:58:57;15.85;;;12.77;;
69890;SDS011;57170;43.964;21.262;2024-01-30T14:01:25;17.98;;;12.40;;
69890;SDS011;57170;43.964;21.262;2024-01-30T14:03:51;20.27;;;15.40;;
69890;SDS011;57170;43.964;21.262;2024-01-30T14:06:17;20.58;;;15.80;;
69890;SDS011;57170;43.964;21.262;2024-01-30T14:08:43;18.23;;;14.70;;
69890;SDS011;57170;43.964;21.262;2024-01-30T14:11:09;24.25;;;17.10;;